Time;durP1;ratioP1;P1;durP2;ratioP2;P2;SDS_P1;SDS_P2;PMS_P1;PMS_P2;Temp;Humidity;BMP_temperature;BMP_pressure;BME280_temperature;BME280_humidity;BME280_pressure;Samples;Min_cycle;Max_cycle;Signal;HPM_P1;HPM_P2
2021/08/22 00:00:44;;;;;;;12.00;7.23;;;;;;;17.95;83.46;96888.78;2595562;36;20419;-74
2021/08/22 00:03:16;;;;;;;12.40;6.70;;;;;;;17.91;83.81;96890.03;2594433;54;20433;-74
2021/08/22 00:05:46;;;;;;;8.10;5.80;;;;;;;17.82;84.71;96848.50;2595629;31;20820;-74
2021/08/22 00:08:16;;;;;;;10.17;4.90;;;;;;;17.38;82.36;96854.28;2594445;54;20434;-73
2021/08/22 00:10:47;;;;;;;6.63;3.03;;;;;;;16.76;85.26;96880.19;2596911;36;20414;-75
2021/08/22 00:13:26;;;;;;;4.40;2.57;;;;;;;16.65;84.16;96874.19;2597767;54;20419;-75
2021/08/22 00:15:56;;;;;;;5.97;2.23;;;;;;;16.42;83.86;96858.53;2596419;36;20817;-74
2021/08/22 00:18:29;;;;;;;3.50;1.80;;;;;;;16.05;83.08;96861.75;2595152;54;20415;-74
2021/08/22 00:20:59;;;;;;;5.97;1.83;;;;;;;15.85;84.79;96883.78;2596934;36;20434;-75
2021/08/22 00:23:29;;;;;;;6.03;2.07;;;;;;;15.71;86.17;96884.94;2596182;54;20391;-75
2021/08/22 00:25:59;;;;;;;4.27;2.07;;;;;;;15.51;87.26;96871.63;2596282;36;20946;-74
2021/08/22 00:28:28;;;;;;;7.20;2.60;;;;;;;15.48;88.67;96871.88;2596287;54;20423;-75
2021/08/22 00:30:58;;;;;;;4.53;2.20;;;;;;;15.42;88.14;96878.50;2599618;36;20431;-74
2021/08/22 00:33:32;;;;;;;7.13;2.07;;;;;;;15.38;88.73;96855.97;2594631;31;20876;-75
2021/08/22 00:36:02;;;;;;;5.80;2.30;;;;;;;15.49;88.97;96847.16;2598835;36;20419;-74
2021/08/22 00:38:33;;;;;;;9.93;2.50;;;;;;;15.55;88.70;96830.78;2595941;39;20834;-73
2021/08/22 00:41:04;;;;;;;5.67;2.67;;;;;;;15.65;88.56;96825.56;2596646;36;20441;-74
2021/08/22 00:43:34;;;;;;;5.10;2.27;;;;;;;15.65;87.78;96820.28;2594619;54;20395;-74
2021/08/22 00:46:07;;;;;;;5.67;2.90;;;;;;;15.70;87.75;96812.81;2594825;31;20879;-74
2021/08/22 00:48:41;;;;;;;6.10;2.60;;;;;;;15.74;86.83;96805.47;2596742;54;21054;-74
2021/08/22 00:51:11;;;;;;;4.27;2.50;;;;;;;15.80;89.40;96794.41;2595788;36;20418;-74
2021/08/22 00:53:40;;;;;;;7.10;3.13;;;;;;;15.90;87.65;96773.31;2596434;39;20734;-74
2021/08/22 00:56:11;;;;;;;3.93;2.60;;;;;;;16.02;87.66;96770.41;2595241;36;20764;-74
2021/08/22 00:58:41;;;;;;;9.40;2.83;;;;;;;16.05;87.04;96779.88;2596004;54;20403;-75
2021/08/22 01:01:16;;;;;;;6.60;2.80;;;;;;;16.02;87.54;96772.25;2595404;36;20423;-75
2021/08/22 01:03:56;;;;;;;7.13;3.67;;;;;;;15.62;90.93;96762.47;2594598;54;20968;-75
2021/08/22 01:06:35;;;;;;;6.53;3.60;;;;;;;15.65;91.41;96750.81;2594869;36;20787;-75
2021/08/22 01:09:12;;;;;;;8.70;3.50;;;;;;;15.67;90.76;96738.34;2594840;54;20422;-74
2021/08/22 01:11:43;;;;;;;5.80;3.23;;;;;;;15.78;90.58;96730.34;2594770;36;20902;-76
2021/08/22 01:14:16;;;;;;;7.70;3.33;;;;;;;16.00;91.04;96724.81;2596171;54;20922;-75
2021/08/22 01:16:51;;;;;;;7.37;4.20;;;;;;;15.93;89.00;96726.31;2595814;36;20834;-76
2021/08/22 01:19:35;;;;;;;6.23;3.50;;;;;;;15.86;89.69;96717.31;2596142;54;20418;-75
2021/08/22 01:22:09;;;;;;;8.50;4.77;;;;;;;15.73;89.74;96714.06;2596140;36;20459;-74
2021/08/22 01:24:42;;;;;;;5.20;3.20;;;;;;;15.94;88.19;96712.16;2596591;54;20450;-74
2021/08/22 01:27:14;;;;;;;6.10;3.43;;;;;;;15.92;88.64;96706.19;2596274;36;20417;-74
2021/08/22 01:29:51;;;;;;;6.17;2.73;;;;;;;15.80;88.46;96710.75;2596596;54;20885;-75
2021/08/22 01:32:21;;;;;;;8.00;2.97;;;;;;;15.41;91.11;96705.31;2595631;36;20390;-74
2021/08/22 01:34:54;;;;;;;7.00;3.77;;;;;;;15.67;90.33;96710.13;2594821;39;20809;-74
2021/08/22 01:37:23;;;;;;;5.23;3.37;;;;;;;15.71;89.84;96721.25;2594164;36;20753;-76
2021/08/22 01:39:53;;;;;;;3.97;2.63;;;;;;;15.74;90.18;96713.06;2595010;54;20426;-75
2021/08/22 01:42:23;;;;;;;4.80;2.70;;;;;;;15.66;89.66;96719.03;2559139;54;2004817;-74
2021/08/22 01:44:53;;;;;;;3.77;2.90;;;;;;;15.72;89.57;96721.13;2595341;54;20418;-74
2021/08/22 01:47:25;;;;;;;6.90;3.10;;;;;;;15.76;88.48;96719.09;2595162;31;21013;-75
2021/08/22 01:50:02;;;;;;;6.13;3.40;;;;;;;15.79;87.04;96711.72;2595470;31;21228;-73
2021/08/22 01:52:34;;;;;;;5.93;3.20;;;;;;;15.68;86.87;96713.59;2595479;39;20779;-75
2021/08/22 01:55:05;;;;;;;8.43;3.47;;;;;;;15.55;88.07;96700.63;2594796;36;20383;-74
2021/08/22 01:57:35;;;;;;;5.17;3.50;;;;;;;15.62;88.95;96720.22;2596060;54;20546;-75
2021/08/22 02:00:13;;;;;;;5.60;3.70;;;;;;;15.62;88.27;96713.16;2595613;36;21310;-75
2021/08/22 02:03:01;;;;;;;8.10;3.47;;;;;;;15.46;89.37;96706.72;2595957;31;20838;-75
2021/08/22 02:05:39;;;;;;;9.10;3.60;;;;;;;15.45;88.67;96707.69;2595952;36;20974;-75
2021/08/22 02:08:15;;;;;;;6.77;2.90;;;;;;;15.51;88.47;96713.25;2595789;54;20961;-75
2021/08/22 02:10:49;;;;;;;9.40;3.80;;;;;;;15.46;88.22;96704.91;2595430;36;20804;-74
2021/08/22 02:13:23;;;;;;;7.30;3.70;;;;;;;15.42;88.90;96685.84;2595568;54;20990;-75
2021/08/22 02:15:55;;;;;;;5.23;3.30;;;;;;;15.44;88.24;96698.91;2594735;36;21082;-75
2021/08/22 02:18:27;;;;;;;7.53;4.03;;;;;;;15.43;89.40;96699.91;2594542;39;20759;-75
2021/08/22 02:21:00;;;;;;;8.27;2.97;;;;;;;15.50;88.58;96706.31;2594672;36;20423;-74
2021/08/22 02:23:31;;;;;;;6.30;3.23;;;;;;;15.48;89.21;96702.97;2595441;54;20394;-75
2021/08/22 02:26:01;;;;;;;4.90;2.87;;;;;;;15.40;89.07;96694.88;2595116;36;20438;-75
2021/08/22 02:28:31;;;;;;;5.40;2.37;;;;;;;15.24;89.32;96695.38;2595292;39;20746;-74
2021/08/22 02:31:01;;;;;;;6.80;3.10;;;;;;;15.18;89.91;96703.81;2595008;36;20439;-74
2021/08/22 02:33:32;;;;;;;5.87;3.20;;;;;;;15.16;90.31;96698.66;2595999;54;20415;-74
2021/08/22 02:36:18;;;;;;;7.70;3.67;;;;;;;15.07;90.91;96693.34;2597019;36;21053;-76
2021/08/22 02:38:47;;;;;;;4.03;2.50;;;;;;;15.06;91.86;96691.69;2595617;54;20415;-74
2021/08/22 02:41:17;;;;;;;6.27;3.20;;;;;;;15.11;90.67;96687.69;2594947;36;20418;-73
2021/08/22 02:43:47;;;;;;;7.00;2.80;;;;;;;15.15;90.23;96685.59;2595359;54;21258;-75
2021/08/22 02:46:17;;;;;;;9.73;3.57;;;;;;;15.13;90.70;96683.13;2594921;31;20962;-74
2021/08/22 02:48:47;;;;;;;7.30;3.33;;;;;;;15.19;90.83;96682.59;2594287;47;21017;-75
2021/08/22 02:51:20;;;;;;;5.80;2.87;;;;;;;15.18;91.10;96685.34;2594636;36;20441;-74
2021/08/22 02:53:50;;;;;;;5.30;2.97;;;;;;;15.20;90.51;96689.53;2596450;54;20438;-74
2021/08/22 02:56:20;;;;;;;6.50;3.50;;;;;;;15.21;90.53;96685.94;2595088;36;20949;-74
2021/08/22 02:58:50;;;;;;;5.23;3.23;;;;;;;15.30;90.07;96689.56;2595607;54;20466;-75
2021/08/22 03:01:20;;;;;;;4.67;2.33;;;;;;;15.26;90.24;96695.25;2595733;36;20783;-73
2021/08/22 03:03:50;;;;;;;6.90;3.00;;;;;;;15.29;90.11;96702.88;2595556;39;20756;-73
2021/08/22 03:06:23;;;;;;;7.10;3.10;;;;;;;15.28;90.80;96703.88;2595738;31;20713;-74
2021/08/22 03:08:52;;;;;;;5.80;3.07;;;;;;;15.20;90.73;96699.25;2594536;39;20769;-76
2021/08/22 03:11:22;;;;;;;5.47;3.80;;;;;;;15.29;90.45;96695.81;2593942;36;20519;-73
2021/08/22 03:13:52;;;;;;;7.53;3.57;;;;;;;15.39;89.33;96701.97;2594135;54;21044;-73
2021/08/22 03:16:22;;;;;;;5.67;3.13;;;;;;;15.45;88.94;96697.97;2594215;36;21092;-75
2021/08/22 03:18:52;;;;;;;5.20;3.30;;;;;;;15.43;88.92;96703.38;2594328;54;20989;-75
2021/08/22 03:21:25;;;;;;;4.60;2.77;;;;;;;15.01;91.66;96705.25;2593507;36;20820;-75
2021/08/22 03:23:54;;;;;;;5.03;3.00;;;;;;;14.92;92.68;96698.97;2594240;39;20748;-75
2021/08/22 03:26:24;;;;;;;3.87;2.70;;;;;;;14.77;93.47;96679.16;2594557;36;21030;-73
2021/08/22 03:28:54;;;;;;;4.37;2.83;;;;;;;14.91;92.87;96688.53;2595846;54;20446;-74
2021/08/22 03:31:24;;;;;;;10.43;2.93;;;;;;;14.78;93.20;96689.59;2596464;36;20466;-73
2021/08/22 03:33:54;;;;;;;4.97;2.70;;;;;;;15.08;93.22;96701.13;2595185;39;20750;-77
2021/08/22 03:36:26;;;;;;;4.47;2.90;;;;;;;15.12;91.51;96701.72;2595687;31;20863;-76
2021/08/22 03:38:56;;;;;;;4.70;2.77;;;;;;;15.12;91.38;96691.16;2594198;54;20847;-75
2021/08/22 03:41:26;;;;;;;8.40;2.80;;;;;;;15.18;91.15;96696.72;2594055;36;21005;-75
2021/08/22 03:43:56;;;;;;;6.93;2.80;;;;;;;15.33;90.88;96701.69;2594514;54;21052;-75
2021/08/22 03:46:26;;;;;;;4.63;3.00;;;;;;;15.35;90.17;96702.38;2594458;31;20982;-76
2021/08/22 03:48:56;;;;;;;6.03;3.17;;;;;;;15.39;90.67;96703.78;2593893;47;20442;-75
2021/08/22 03:51:29;;;;;;;4.03;2.53;;;;;;;15.38;89.40;96704.72;2594342;36;20471;-76
2021/08/22 03:53:58;;;;;;;6.10;3.30;;;;;;;15.38;88.61;96712.66;2593681;54;20985;-77
2021/08/22 03:56:28;;;;;;;7.30;2.87;;;;;;;15.48;88.37;96717.97;2594014;36;20474;-74
2021/08/22 03:58:58;;;;;;;4.57;2.57;;;;;;;15.45;89.36;96721.72;2594304;39;21201;-74
2021/08/22 04:01:28;;;;;;;6.17;3.57;;;;;;;14.91;91.83;96723.66;2593712;36;20438;-75
2021/08/22 04:03:58;;;;;;;5.87;2.80;;;;;;;14.88;93.14;96726.56;2594219;39;20767;-76
2021/08/22 04:06:31;;;;;;;4.67;2.70;;;;;;;15.15;92.64;96723.41;2593586;36;20419;-75
2021/08/22 04:09:01;;;;;;;7.90;3.20;;;;;;;15.25;91.83;96728.72;2594069;54;21030;-75
2021/08/22 04:11:31;;;;;;;13.73;2.77;;;;;;;15.28;91.59;96730.25;2594797;31;20968;-75
2021/08/22 04:14:02;;;;;;;4.07;2.37;;;;;;;15.29;91.13;96724.00;2595046;54;20415;-75
2021/08/22 04:16:32;;;;;;;13.90;3.00;;;;;;;15.31;91.01;96722.06;2595719;36;20785;-76
2021/08/22 04:19:02;;;;;;;4.67;3.43;;;;;;;15.41;90.63;96730.88;2595720;54;20930;-76
2021/08/22 04:21:35;;;;;;;4.90;2.90;;;;;;;15.45;90.06;96728.81;2594761;36;21048;-76
2021/08/22 04:24:06;;;;;;;4.13;2.70;;;;;;;15.45;89.54;96724.34;2595694;39;20851;-76
2021/08/22 04:26:36;;;;;;;6.17;2.87;;;;;;;15.29;90.11;96718.72;2594617;36;20419;-76
2021/08/22 04:29:06;;;;;;;5.97;2.97;;;;;;;15.46;90.31;96720.72;2594230;54;20435;-76
2021/08/22 04:31:36;;;;;;;6.53;3.00;;;;;;;15.49;90.08;96725.75;2594704;36;21039;-76
2021/08/22 04:34:06;;;;;;;5.33;2.53;;;;;;;15.55;89.54;96730.50;2595628;54;20426;-73
2021/08/22 04:36:38;;;;;;;3.77;2.60;;;;;;;15.48;90.92;96734.63;2595476;31;20890;-77
2021/08/22 04:39:08;;;;;;;7.40;3.37;;;;;;;15.56;90.37;96741.88;2595387;54;20407;-77
2021/08/22 04:41:38;;;;;;;6.33;3.13;;;;;;;15.30;90.25;96728.31;2595259;36;20458;-77
2021/08/22 04:44:08;;;;;;;5.03;3.40;;;;;;;15.42;90.75;96732.53;2595751;39;20751;-76
2021/08/22 04:46:38;;;;;;;5.53;3.50;;;;;;;15.64;91.50;96742.06;2595216;36;20468;-76
2021/08/22 04:49:08;;;;;;;5.67;2.47;;;;;;;15.75;89.39;96738.53;2595380;54;20910;-76
2021/08/22 04:51:40;;;;;;;4.20;2.27;;;;;;;15.84;88.71;96742.16;2594553;36;20921;-76
2021/08/22 04:54:10;;;;;;;3.90;2.80;;;;;;;15.85;88.50;96741.19;2595692;54;20954;-76
2021/08/22 04:56:41;;;;;;;8.47;3.40;;;;;;;15.92;88.78;96737.88;2595081;31;20407;-77
2021/08/22 04:59:12;;;;;;;5.90;3.30;;;;;;;15.91;89.86;96738.84;2594961;39;20780;-77
2021/08/22 05:01:42;;;;;;;6.50;2.87;;;;;;;15.87;88.28;96742.72;2594164;36;20759;-76
2021/08/22 05:04:12;;;;;;;8.40;3.67;;;;;;;15.93;89.93;96750.09;2595502;54;21452;-76
2021/08/22 05:06:45;;;;;;;7.20;3.47;;;;;;;15.99;88.90;96746.94;2595271;36;20457;-77
2021/08/22 05:09:15;;;;;;;5.93;2.93;;;;;;;16.04;89.85;96748.34;2595549;54;20415;-75
2021/08/22 05:11:44;;;;;;;3.83;2.90;;;;;;;16.10;88.89;96751.25;2596736;36;20414;-76
2021/08/22 05:14:14;;;;;;;6.50;3.30;;;;;;;16.27;89.54;96754.19;2594618;54;20552;-75
2021/08/22 05:16:44;;;;;;;6.43;3.10;;;;;;;15.99;90.33;96754.00;2595446;36;20885;-77
2021/08/22 05:19:14;;;;;;;3.87;2.70;;;;;;;15.95;90.03;96752.59;2594392;39;20748;-76
2021/08/22 05:21:47;;;;;;;5.00;3.20;;;;;;;16.04;90.77;96758.91;2594460;36;20443;-76
2021/08/22 05:24:18;;;;;;;4.37;3.00;;;;;;;16.16;88.53;96758.63;2594871;54;20423;-77
2021/08/22 05:26:48;;;;;;;7.90;3.50;;;;;;;16.23;88.63;96764.22;2595347;36;20462;-76
2021/08/22 05:29:18;;;;;;;9.13;3.63;;;;;;;16.36;89.92;96778.00;2594949;47;20946;-76
2021/08/22 05:31:48;;;;;;;5.77;2.80;;;;;;;16.16;89.23;96781.59;2595240;36;20422;-76
2021/08/22 05:34:18;;;;;;;8.73;3.53;;;;;;;16.10;88.87;96780.31;2595306;54;20566;-76
2021/08/22 05:36:50;;;;;;;7.67;3.50;;;;;;;16.05;89.60;96779.88;2596144;36;20787;-75
2021/08/22 05:39:20;;;;;;;6.60;3.40;;;;;;;16.06;89.67;96770.16;2596287;39;20715;-76
2021/08/22 05:41:50;;;;;;;4.70;3.20;;;;;;;16.22;89.70;96773.09;2593673;36;20438;-76
2021/08/22 05:44:20;;;;;;;5.47;3.20;;;;;;;16.38;90.09;96765.47;2594302;54;20452;-76
2021/08/22 05:46:50;;;;;;;4.33;3.20;;;;;;;16.39;88.61;96766.31;2594282;36;20771;-76
2021/08/22 05:49:20;;;;;;;7.57;4.37;;;;;;;16.74;88.00;96759.63;2594063;54;20421;-75
2021/08/22 05:51:52;;;;;;;5.27;3.50;;;;;;;17.05;88.63;96752.41;2594729;36;20772;-75
2021/08/22 05:54:22;;;;;;;4.67;3.63;;;;;;;17.26;87.31;96764.63;2593772;54;21009;-76
2021/08/22 05:56:52;;;;;;;6.80;3.07;;;;;;;17.27;85.62;96756.56;2595320;36;20816;-76
2021/08/22 05:59:22;;;;;;;7.00;4.23;;;;;;;17.42;85.48;96764.03;2595252;39;20732;-75
2021/08/22 06:01:52;;;;;;;4.70;3.00;;;;;;;17.28;83.09;96760.03;2594702;36;20612;-75
2021/08/22 06:04:22;;;;;;;7.27;4.33;;;;;;;17.02;83.99;96765.94;2595117;54;20426;-75
2021/08/22 06:06:54;;;;;;;6.63;3.50;;;;;;;16.98;84.78;96767.19;2595259;36;21246;-75
2021/08/22 06:09:25;;;;;;;5.87;3.57;;;;;;;17.01;84.55;96766.88;2594641;47;20426;-75
2021/08/22 06:11:55;;;;;;;7.07;3.73;;;;;;;17.00;84.63;96760.78;2596956;36;20721;-75
2021/08/22 06:14:25;;;;;;;5.83;3.70;;;;;;;17.00;84.31;96766.06;2596691;54;20558;-75
2021/08/22 06:16:55;;;;;;;6.53;3.50;;;;;;;17.12;84.20;96766.75;2595584;36;21129;-75
2021/08/22 06:19:25;;;;;;;8.37;3.47;;;;;;;17.16;84.88;96760.19;2595217;54;20882;-74
2021/08/22 06:21:57;;;;;;;5.90;3.90;;;;;;;17.06;85.35;96762.00;2595879;36;20815;-74
2021/08/22 06:24:27;;;;;;;9.50;3.30;;;;;;;17.03;85.57;96764.94;2597579;39;21152;-74
2021/08/22 06:26:57;;;;;;;11.00;4.07;;;;;;;17.00;86.44;96766.06;2597168;36;20978;-75
2021/08/22 06:29:26;;;;;;;6.20;4.33;;;;;;;17.03;86.26;96772.88;2597317;39;20771;-74
2021/08/22 06:31:56;;;;;;;8.77;3.80;;;;;;;16.97;86.70;96774.28;2596784;36;20446;-74
2021/08/22 06:34:26;;;;;;;8.83;4.23;;;;;;;17.00;86.71;96775.81;2597483;39;20867;-74
2021/08/22 06:36:59;;;;;;;9.80;4.13;;;;;;;17.03;85.00;96770.22;2597034;36;20762;-74
2021/08/22 06:39:28;;;;;;;5.70;3.47;;;;;;;16.98;85.45;96762.72;2597003;54;20403;-74
2021/08/22 06:41:58;;;;;;;10.47;3.93;;;;;;;17.05;85.52;96768.28;2597210;36;20902;-75
2021/08/22 06:44:28;;;;;;;7.87;3.70;;;;;;;17.15;85.39;96774.41;2596936;39;20759;-75
2021/08/22 06:46:58;;;;;;;4.93;3.80;;;;;;;17.13;85.37;96749.91;2596393;36;20914;-75
2021/08/22 06:49:28;;;;;;;6.30;3.90;;;;;;;17.31;85.88;96760.56;2596173;54;20434;-75
2021/08/22 06:52:00;;;;;;;6.80;4.00;;;;;;;17.26;85.32;96756.69;2598883;36;20516;-75
2021/08/22 06:54:30;;;;;;;5.93;4.27;;;;;;;17.15;86.16;96760.31;2597945;54;20886;-76
2021/08/22 06:57:00;;;;;;;6.97;4.10;;;;;;;17.15;86.76;96763.81;2596358;36;20937;-76
2021/08/22 06:59:29;;;;;;;7.50;4.20;;;;;;;17.14;86.38;96767.44;2596890;39;20817;-74
2021/08/22 07:01:59;;;;;;;7.33;3.83;;;;;;;17.26;85.30;96761.97;2595469;36;20998;-74
2021/08/22 07:04:30;;;;;;;6.40;4.27;;;;;;;17.37;85.66;96767.94;2595806;54;20449;-75
2021/08/22 07:07:02;;;;;;;5.77;3.97;;;;;;;17.39;85.90;96771.28;2594798;36;20894;-76
2021/08/22 07:09:31;;;;;;;6.97;4.10;;;;;;;17.44;85.36;96773.47;2595329;54;20447;-76
2021/08/22 07:12:01;;;;;;;6.60;3.77;;;;;;;17.44;86.01;96773.47;2596305;36;20847;-76
2021/08/22 07:14:31;;;;;;;5.77;4.13;;;;;;;17.56;84.68;96771.50;2597639;54;20925;-77
2021/08/22 07:17:01;;;;;;;7.07;4.03;;;;;;;17.48;84.71;96774.03;2595504;36;21067;-76
2021/08/22 07:19:30;;;;;;;6.50;4.43;;;;;;;17.57;84.72;96781.94;2596951;39;20746;-76
2021/08/22 07:22:03;;;;;;;8.17;4.70;;;;;;;17.65;85.05;96777.75;2596429;36;20446;-76
2021/08/22 07:24:33;;;;;;;14.53;4.43;;;;;;;17.76;84.26;96778.41;2597474;54;20383;-73
2021/08/22 07:27:02;;;;;;;6.20;4.10;;;;;;;17.90;84.43;96779.75;2596640;31;20946;-72
2021/08/22 07:29:32;;;;;;;7.53;4.50;;;;;;;18.13;84.07;96777.56;2596468;54;20383;-75
2021/08/22 07:32:02;;;;;;;6.10;3.93;;;;;;;18.24;82.66;96780.97;2595351;36;20686;-75
2021/08/22 07:34:32;;;;;;;6.93;4.30;;;;;;;18.54;80.39;96769.16;2595764;54;20874;-74
2021/08/22 07:37:04;;;;;;;6.10;4.40;;;;;;;19.09;80.02;96766.38;2595654;36;20427;-74
2021/08/22 07:39:34;;;;;;;7.30;4.30;;;;;;;19.70;78.67;96777.06;2596166;54;20933;-75
2021/08/22 07:42:04;;;;;;;5.57;4.20;;;;;;;19.85;76.75;96775.47;2595520;31;20993;-74
2021/08/22 07:44:34;;;;;;;18.43;8.43;;;;;;;19.99;75.38;96776.69;2594539;54;20454;-76
2021/08/22 07:47:04;;;;;;;8.83;4.17;;;;;;;19.94;75.13;96779.84;2595494;36;20424;-75
2021/08/22 07:49:34;;;;;;;6.70;3.73;;;;;;;20.12;76.17;96776.25;2596110;39;20779;-75
2021/08/22 07:52:08;;;;;;;8.17;3.83;;;;;;;20.42;75.53;96771.34;2596151;36;20423;-75
2021/08/22 07:54:37;;;;;;;10.57;4.40;;;;;;;20.44;74.28;96772.00;2595833;54;21385;-75
2021/08/22 07:57:07;;;;;;;8.10;3.63;;;;;;;20.33;73.11;96770.50;2595970;36;20489;-75
2021/08/22 07:59:41;;;;;;;6.00;3.40;;;;;;;20.34;74.20;96774.81;2596709;39;20766;-75
2021/08/22 08:02:11;;;;;;;7.57;3.50;;;;;;;20.43;75.45;96781.81;2595712;36;20426;-76
2021/08/22 08:04:41;;;;;;;5.10;3.50;;;;;;;20.59;72.29;96778.41;2596755;39;20790;-76
2021/08/22 08:07:14;;;;;;;6.00;4.00;;;;;;;20.09;72.93;96769.44;2595903;36;20780;-75
2021/08/22 08:09:55;;;;;;;7.70;4.27;;;;;;;19.72;73.83;96783.88;2600254;39;20897;-74
2021/08/22 08:12:27;;;;;;;8.00;3.63;;;;;;;19.71;74.85;96781.34;2560039;54;2003848;-75
2021/08/22 08:14:58;;;;;;;5.17;3.83;;;;;;;19.88;76.01;96790.28;2594218;36;20442;-75
2021/08/22 08:17:28;;;;;;;4.23;3.47;;;;;;;19.71;76.86;96787.53;2594897;54;20445;-75
2021/08/22 08:19:58;;;;;;;10.07;5.00;;;;;;;19.64;78.13;96788.28;2595264;36;20542;-75
2021/08/22 08:22:31;;;;;;;8.63;4.20;;;;;;;19.42;78.97;96797.63;2594496;54;20502;-75
2021/08/22 08:25:00;;;;;;;7.97;4.40;;;;;;;19.81;79.45;96792.72;2594715;36;20451;-76
2021/08/22 08:27:30;;;;;;;7.73;4.10;;;;;;;20.07;77.45;96792.69;2595840;54;20418;-75
2021/08/22 08:30:00;;;;;;;8.50;4.40;;;;;;;20.20;77.55;96792.22;2594355;36;21019;-76
2021/08/22 08:32:30;;;;;;;5.90;4.03;;;;;;;20.37;74.81;96786.97;2595908;54;20502;-75
2021/08/22 08:35:00;;;;;;;7.00;4.10;;;;;;;20.55;74.85;96793.00;2598653;36;20387;-76
2021/08/22 08:37:32;;;;;;;6.07;3.53;;;;;;;20.19;75.39;96795.88;2595227;54;20383;-75
2021/08/22 08:40:02;;;;;;;7.63;3.73;;;;;;;20.13;74.20;96801.81;2596632;36;20411;-76
2021/08/22 08:42:33;;;;;;;4.47;3.50;;;;;;;19.51;75.34;96802.81;2597746;54;20514;-75
2021/08/22 08:45:03;;;;;;;6.17;3.90;;;;;;;19.60;76.64;96811.69;2596911;36;20751;-75
2021/08/22 08:47:33;;;;;;;6.70;4.30;;;;;;;19.47;78.19;96805.97;2596454;54;20478;-75
2021/08/22 08:50:05;;;;;;;7.40;4.60;;;;;;;19.22;78.69;96796.97;2596174;31;20483;-75
2021/08/22 08:52:43;;;;;;;7.67;3.93;;;;;;;18.77;79.37;96809.34;2596257;47;20898;-75
2021/08/22 08:55:18;;;;;;;4.30;3.33;;;;;;;18.63;81.60;96818.66;2597768;36;20562;-75
2021/08/22 08:57:48;;;;;;;5.73;3.93;;;;;;;18.40;83.95;96817.41;2597477;54;20450;-75
2021/08/22 09:00:18;;;;;;;6.87;4.13;;;;;;;18.26;85.28;96829.38;2596324;36;20522;-76
2021/08/22 09:02:48;;;;;;;9.13;4.40;;;;;;;18.17;86.41;96821.31;2595741;39;20759;-76
2021/08/22 09:05:35;;;;;;;7.83;4.73;;;;;;;18.42;85.35;96818.09;2595560;31;21055;-74
2021/08/22 09:08:44;;;;;;;9.17;4.23;;;;;;;18.84;85.20;96821.06;2596296;39;21083;-75
2021/08/22 09:11:55;;;;;;;7.27;5.10;;;;;;;19.06;82.43;96816.28;2594543;36;20423;-75
2021/08/22 09:14:58;;;;;;;5.20;4.37;;;;;;;20.02;78.73;96807.44;2594646;54;20422;-75
2021/08/22 09:18:14;;;;;;;8.23;4.73;;;;;;;20.67;77.31;96802.34;2558787;54;2004255;-75
2021/08/22 09:21:17;;;;;;;6.47;4.20;;;;;;;21.11;75.57;96810.06;2594804;36;20446;-74
2021/08/22 09:24:17;;;;;;;9.23;4.37;;;;;;;20.78;74.43;96795.03;2593896;47;21069;-75
2021/08/22 09:27:21;;;;;;;7.43;4.70;;;;;;;21.18;77.26;96802.22;2594272;36;20465;-75
2021/08/22 09:30:32;;;;;;;8.53;4.87;;;;;;;21.08;72.16;96793.56;2596667;54;20942;-75
2021/08/22 09:33:35;;;;;;;6.53;4.43;;;;;;;21.00;74.37;96794.41;2558356;54;2005539;-74
2021/08/22 09:36:35;;;;;;;6.90;5.33;;;;;;;20.90;74.87;96794.56;2594684;36;21030;-74
2021/08/22 09:39:44;;;;;;;7.03;4.97;;;;;;;20.44;76.12;96793.28;2595342;54;20414;-74
2021/08/22 09:42:59;;;;;;;9.83;5.07;;;;;;;20.08;77.08;96793.50;2595155;31;20855;-74
2021/08/22 09:46:07;;;;;;;13.10;8.60;;;;;;;20.02;78.74;96805.63;2595268;36;20509;-75
2021/08/22 09:49:31;;;;;;;6.43;4.40;;;;;;;19.79;80.73;96804.50;2595339;54;20969;-74
2021/08/22 09:52:39;;;;;;;8.10;5.00;;;;;;;19.70;79.79;96806.28;2595269;31;20550;-75
2021/08/22 09:55:39;;;;;;;8.20;5.03;;;;;;;19.88;79.42;96809.72;2595931;36;20728;-74
2021/08/22 09:58:44;;;;;;;6.70;5.27;;;;;;;19.84;81.15;96803.03;2596284;39;21195;-74
2021/08/22 10:01:59;;;;;;;6.13;4.50;;;;;;;19.94;79.56;96808.25;2596773;31;20869;-74
2021/08/22 10:05:08;;;;;;;9.83;5.03;;;;;;;19.65;81.86;96798.75;2595032;39;21212;-74
2021/08/22 10:07:58;;;;;;;8.17;5.17;;;;;;;19.39;81.69;96806.72;2559748;54;2004162;-74
2021/08/22 10:10:29;;;;;;;9.97;5.80;;;;;;;19.38;83.11;96799.75;2595550;36;20962;-74
2021/08/22 10:13:01;;;;;;;7.70;5.10;;;;;;;19.23;82.90;96795.97;2599022;47;21190;-75
2021/08/22 10:15:33;;;;;;;10.20;4.67;;;;;;;19.17;82.75;96814.22;2596795;36;20607;-74
2021/08/22 10:18:03;;;;;;;8.03;5.30;;;;;;;19.34;81.87;96803.69;2595408;54;20510;-75
2021/08/22 10:20:44;;;;;;;6.70;5.10;;;;;;;19.51;81.17;96805.47;2595128;36;20507;-74
2021/08/22 10:23:44;;;;;;;9.13;5.80;;;;;;;19.39;80.95;96814.69;2594820;54;20481;-74
2021/08/22 10:26:36;;;;;;;7.93;5.00;;;;;;;19.33;81.82;96810.84;2593484;36;20423;-75
2021/08/22 10:29:06;;;;;;;13.13;6.80;;;;;;;19.05;83.05;96828.72;2594779;54;20903;-74
2021/08/22 10:32:13;;;;;;;6.73;5.07;;;;;;;19.05;83.50;96812.78;2596036;31;20984;-75
2021/08/22 10:34:48;;;;;;;12.17;5.37;;;;;;;18.75;83.96;96814.78;2594939;39;20821;-75
2021/08/22 10:37:35;;;;;;;5.77;4.07;;;;;;;18.37;78.44;96811.44;2594626;36;20782;-74
2021/08/22 10:40:36;;;;;;;2.73;2.27;;;;;;;17.87;78.11;96795.94;2594489;36;20529;-74
2021/08/22 10:43:31;;;;;;;3.10;1.77;;;;;;;17.50;79.63;96788.78;2596265;39;21137;-75
2021/08/22 10:46:05;;;;;;;12.33;2.50;;;;;;;17.45;79.71;96799.00;2599392;36;20422;-76
2021/08/22 10:48:56;;;;;;;8.87;2.03;;;;;;;17.44;79.09;96799.13;2600055;54;20447;-74
2021/08/22 10:51:27;;;;;;;4.23;2.27;;;;;;;17.74;79.15;96800.72;2599436;36;20454;-75
2021/08/22 10:54:18;;;;;;;3.07;1.27;;;;;;;17.99;78.63;96807.16;2601524;54;20507;-74
2021/08/22 10:56:48;;;;;;;3.23;1.40;;;;;;;17.65;78.66;96807.69;2598773;36;21009;-75
2021/08/22 10:59:18;;;;;;;3.07;1.50;;;;;;;17.43;79.73;96797.47;2599022;54;20407;-74
2021/08/22 11:01:48;;;;;;;2.67;1.43;;;;;;;17.34;80.52;96804.44;2598523;36;20422;-75
2021/08/22 11:04:23;;;;;;;2.30;1.70;;;;;;;17.42;80.03;96804.56;2596216;54;20946;-76
2021/08/22 11:06:59;;;;;;;5.27;1.53;;;;;;;17.41;81.55;96802.91;2595438;36;21084;-75
2021/08/22 11:09:40;;;;;;;7.50;1.27;;;;;;;17.47;81.44;96804.16;2594322;47;20428;-77
2021/08/22 11:12:26;;;;;;;2.70;2.00;;;;;;;17.46;82.63;96810.41;2595883;31;20821;-74
2021/08/22 11:14:57;;;;;;;2.47;1.60;;;;;;;17.34;82.81;96815.03;2595830;36;21026;-73
2021/08/22 11:17:28;;;;;;;2.03;1.53;;;;;;;17.41;82.36;96817.97;2598188;54;20413;-75
2021/08/22 11:20:12;;;;;;;2.00;1.40;;;;;;;17.31;81.70;96816.16;2598279;36;20465;-74
2021/08/22 11:22:43;;;;;;;2.13;1.67;;;;;;;17.49;81.27;96826.00;2597408;54;20518;-74
2021/08/22 11:25:14;;;;;;;2.97;1.43;;;;;;;17.37;81.79;96826.16;2597619;36;20474;-73
2021/08/22 11:27:45;;;;;;;3.67;1.93;;;;;;;17.56;81.78;96825.28;2598576;54;20430;-74
2021/08/22 11:30:15;;;;;;;2.93;1.77;;;;;;;17.63;81.04;96830.00;2598398;36;20521;-74
2021/08/22 11:32:54;;;;;;;2.30;1.37;;;;;;;17.23;82.26;96829.25;2601395;54;20402;-75
2021/08/22 11:35:27;;;;;;;2.83;1.80;;;;;;;16.99;83.22;96822.59;2599053;36;20938;-74
2021/08/22 11:38:01;;;;;;;3.10;2.20;;;;;;;17.10;83.54;96820.78;2597221;46;20547;-75
2021/08/22 11:40:31;;;;;;;2.80;1.77;;;;;;;16.88;84.82;96820.09;2597182;36;20449;-75
2021/08/22 11:43:02;;;;;;;5.37;2.63;;;;;;;16.70;86.25;96817.28;2598089;39;20758;-74
2021/08/22 11:45:35;;;;;;;12.03;3.80;;;;;;;16.54;88.49;96814.31;2597796;36;20473;-74
2021/08/22 11:48:16;;;;;;;8.27;3.90;;;;;;;16.79;87.27;96816.41;2597545;54;20418;-75
2021/08/22 11:50:50;;;;;;;3.30;1.97;;;;;;;16.74;86.80;96802.81;2594979;36;20768;-74
2021/08/22 11:53:30;;;;;;;8.60;2.00;;;;;;;16.90;85.39;96810.22;2595814;39;20779;-74
2021/08/22 11:56:00;;;;;;;5.40;1.50;;;;;;;16.52;86.34;96809.16;2596042;36;20423;-74
2021/08/22 11:58:35;;;;;;;2.17;1.50;;;;;;;16.36;87.90;96825.56;2595736;54;20426;-75
2021/08/22 12:01:18;;;;;;;2.73;1.90;;;;;;;16.40;85.90;96828.78;2594214;36;21008;-73
2021/08/22 12:04:02;;;;;;;3.50;1.30;;;;;;;16.19;87.13;96848.19;2594153;47;20538;-74
2021/08/22 12:06:35;;;;;;;4.90;2.40;;;;;;;15.94;90.02;96831.00;2594878;36;20945;-74